Latest Weather Observations for Nerriga

IDN60801

Issued at 12:35 pm EST Tuesday 16 September 2014 (issued every 30 minutes, with the page automatically refreshed every 10 minutes)

About weather observations | Map of weather stations | Latest weather observations for NSW | Other Formats
Station Details ID: 069128 Name: NERRIGA AWS Lat: -35.11 Lon: 150.08 Height: 622.0 m
Data from the previous 72 hours. | See also: Recent months at Nerriga
Date/Time
EST
Temp
°C
App
Temp
°C
Dew
Point
Rel
Hum
%
Delta-T
°C
Wind Press
QNH
hPa
Press
MSL
hPa
Rain
since 9 am
mm
Dir
 
Spd
km/h
Gust
km/h
Spd
kts
Gust
kts
16/12:30pm 16.3 9.3 6.2 51 5.1 NW 32 43 17 23 1007.9 1007.8 0.0
16/12:00pm 16.8 12.5 7.2 53 5.0 NNW 19 26 10 14 1008.5 1008.3 0.0
16/11:30am 16.6 13.9 9.1 61 4.0 N 13 19 7 10 1009.1 1009.0 0.0
16/11:00am 14.8 12.6 9.4 70 2.9 N 11 19 6 10 1009.7 1009.6 0.0
16/10:30am 14.8 11.5 9.6 71 2.8 NNW 17 30 9 16 1010.2 1010.0 0.0
16/10:00am 14.9 11.9 10.7 76 2.3 N 17 28 9 15 1010.2 1010.0 0.0
16/09:30am 13.2 10.1 10.2 82 1.6 N 17 24 9 13 1010.7 1010.6 0.0
16/09:00am 13.5 10.6 11.0 85 1.4 N 17 28 9 15 1010.9 1010.8 0.6
16/08:30am 13.1 10.6 11.0 87 1.1 NNE 15 22 8 12 1010.9 1010.8 0.6
16/08:00am 12.2 10.2 10.3 88 1.0 N 11 15 6 8 1011.0 1010.9 0.6
16/07:30am 11.8 9.5 10.4 91 0.7 N 13 17 7 9 1011.0 1010.9 0.6
16/07:00am 11.3 7.9 10.7 96 0.3 NE 19 24 10 13 1010.7 1010.6 0.6
16/06:30am 11.2 8.6 10.6 96 0.3 NE 15 24 8 13 1010.9 1010.8 0.6
16/06:00am 11.0 7.4 10.7 98 0.2 NE 20 32 11 17 1011.0 1010.9 0.6
16/05:30am 10.8 8.5 10.5 98 0.2 N 13 19 7 10 1011.9 1011.8 0.4
16/05:00am 11.3 7.7 10.7 96 0.3 NE 20 28 11 15 1011.4 1011.3 0.4
16/04:30am 11.1 8.9 10.8 98 0.2 NE 13 19 7 10 1012.0 1011.9 0.4
16/04:00am 10.9 9.4 10.6 98 0.2 N 9 20 5 11 1012.2 1012.1 0.4
16/03:30am 10.9 9.4 10.6 98 0.2 N 9 17 5 9 1012.2 1012.1 0.4
16/03:00am 10.8 9.3 10.5 98 0.2 NNE 9 15 5 8 1012.2 1012.1 0.4
16/02:30am 10.9 9.8 10.6 98 0.2 NNE 7 13 4 7 1012.4 1012.3 0.4
16/02:00am 10.9 9.0 10.6 98 0.2 NNE 11 19 6 10 1012.9 1012.8 0.4
16/01:30am 10.8 9.7 10.5 98 0.2 N 7 13 4 7 1013.4 1013.4 0.4
16/01:00am 10.7 9.2 10.4 98 0.2 NE 9 13 5 7 1013.4 1013.4 0.4
16/12:30am 10.9 9.0 10.6 98 0.2 NE 11 15 6 8 1013.4 1013.4 0.4
16/12:00am 10.9 10.4 10.6 98 0.2 NNE 4 7 2 4 1014.1 1014.0 0.4
 
Date/Time
EST
Temp
°C
App
Temp
°C
Dew
Point
Rel
Hum
%
Delta-T
°C
Wind Press
QNH
hPa
Press
MSL
hPa
Rain
since 9 am
mm
Dir
 
Spd
km/h
Gust
km/h
Spd
kts
Gust
kts
15/11:30pm 10.7 9.7 10.4 98 0.2 NNE 6 9 3 5 1014.7 1014.7 0.2
15/11:00pm 10.8 9.7 10.5 98 0.2 NNE 7 11 4 6 1015.3 1015.2 0.2
15/10:30pm 10.9 9.4 10.6 98 0.2 NNE 9 13 5 7 1015.7 1015.6 0.2
15/10:00pm 11.3 9.8 10.7 96 0.3 NNE 9 15 5 8 1015.9 1015.8 0.0
15/09:30pm 10.9 9.8 10.6 98 0.2 NE 7 11 4 6 1016.0 1016.0 0.0
15/09:00pm 11.1 9.7 10.8 98 0.2 ENE 9 15 5 8 1015.9 1015.8 0.0
15/08:30pm 10.8 9.3 10.5 98 0.2 ENE 9 13 5 7 1016.0 1016.0 0.0
15/08:00pm 10.8 9.7 10.5 98 0.2 ENE 7 11 4 6 1016.0 1016.0 0.0
15/07:30pm 10.9 8.6 10.4 97 0.3 ENE 13 17 7 9 1015.8 1015.7 0.0
15/07:00pm 10.9 7.7 10.1 95 0.4 E 17 24 9 13 1015.5 1015.4 0.0
15/06:30pm 11.4 8.6 10.0 91 0.7 E 15 20 8 11 1015.3 1015.2 0.0
15/06:00pm 12.0 8.8 9.9 87 1.1 E 17 22 9 12 1015.1 1015.1 0.0
15/05:30pm 13.0 9.4 10.0 82 1.6 ENE 19 22 10 12 1014.9 1014.9 0.0
15/05:00pm 13.8 10.7 10.2 79 1.9 E 17 22 9 12 1014.7 1014.7 0.0
15/04:30pm 14.1 10.3 9.9 76 2.2 E 20 26 11 14 1014.6 1014.6 0.0
15/04:00pm 15.6 12.7 9.5 67 3.3 E 15 20 8 11 1014.6 1014.6 0.0
15/03:30pm 16.3 13.2 8.8 61 4.0 E 15 20 8 11 1014.7 1014.7 0.0
15/03:00pm 17.5 15.3 5.4 45 6.0 W 6 11 3 6 1014.9 1014.9 0.0
15/02:30pm 17.2 15.2 6.1 48 5.6 W 6 9 3 5 1014.9 1014.9 0.0
15/02:00pm 16.2 13.8 4.3 45 5.8 W 6 13 3 7 1015.3 1015.2 0.0
15/01:30pm 16.7 14.8 5.0 46 5.8 W 4 7 2 4 1015.6 1015.5 0.0
15/01:00pm 15.6 13.1 4.9 49 5.2 W 7 11 4 6 1016.0 1016.0 0.0
15/12:30pm 15.6 13.3 5.5 51 5.0 WSW 7 15 4 8 1016.5 1016.5 0.0
15/12:00pm 15.2 13.4 7.0 58 4.2 N 6 13 3 7 1016.8 1016.8 0.0
15/11:30am 14.3 13.0 7.8 65 3.3 N 4 9 2 5 1017.2 1017.1 0.0
15/11:00am 13.3 11.6 8.4 72 2.5 NNE 7 13 4 7 1017.6 1017.6 0.0
15/10:30am 12.4 10.5 7.5 72 2.5 NNE 7 11 4 6 1018.1 1018.1 0.0
15/10:00am 11.5 10.3 8.0 79 1.8 NNE 4 7 2 4 1018.2 1018.2 0.0
15/09:30am 9.6 8.0 7.9 89 0.8 NNE 6 7 3 4 1018.4 1018.4 0.0
15/09:00am 9.0 7.5 8.6 97 0.2 NNE 6 7 3 4 1018.8 1018.8 0.2
15/08:30am 8.8 7.3 8.5 98 0.2 NNE 6 7 3 4 1018.8 1018.8 0.2
15/08:00am 8.3 6.5 8.0 98 0.1 NNE 7 11 4 6 1018.9 1018.9 0.2
15/07:30am 8.4 6.3 8.1 98 0.1 NE 9 11 5 6 1018.4 1018.4 0.2
15/07:00am 8.3 6.6 8.2 99 0.0 E 7 9 4 5 1018.4 1018.4 0.2
15/06:30am 8.0 6.3 7.7 98 0.1 E 6 9 3 5 1018.4 1018.4 0.2
15/06:00am 7.9 7.3 7.6 98 0.1 CALM 0 4 0 2 1018.3 1018.3 0.2
15/05:30am 8.0 6.3 7.7 98 0.1 E 6 9 3 5 1018.3 1018.3 0.2
15/05:00am 7.6 6.2 7.3 98 0.1 E 4 6 2 3 1018.2 1018.2 0.2
15/04:30am 7.6 6.6 7.3 98 0.1 E 2 4 1 2 1017.8 1017.8 0.2
15/04:00am 7.3 6.6 7.0 98 0.1 CALM 0 0 0 0 1017.9 1017.9 0.2
15/03:30am 8.2 7.7 7.9 98 0.1 CALM 0 0 0 0 1018.1 1018.1 0.2
15/03:00am 8.3 7.8 8.0 98 0.1 CALM 0 0 0 0 1018.4 1018.4 0.2
15/02:30am 8.7 8.3 8.4 98 0.2 CALM 0 0 0 0 1018.5 1018.5 0.2
15/02:00am 9.2 9.0 8.9 98 0.2 CALM 0 0 0 0 1018.7 1018.6 0.2
15/01:30am 9.3 7.9 9.0 98 0.2 E 6 7 3 4 1018.8 1018.8 0.2
15/01:00am 9.0 8.7 8.7 98 0.2 CALM 0 4 0 2 1019.0 1019.0 0.2
15/12:30am 8.8 8.5 8.5 98 0.2 CALM 0 0 0 0 1019.1 1019.1 0.2
15/12:00am 8.6 7.8 8.3 98 0.1 E 2 6 1 3 1019.3 1019.3 0.2
 
Date/Time
EST
Temp
°C
App
Temp
°C
Dew
Point
Rel
Hum
%
Delta-T
°C
Wind Press
QNH
hPa
Press
MSL
hPa
Rain
since 9 am
mm
Dir
 
Spd
km/h
Gust
km/h
Spd
kts
Gust
kts
14/11:30pm 9.1 8.1 8.8 98 0.2 E 4 7 2 4 1019.5 1019.5 0.2
14/11:00pm 9.3 8.3 9.0 98 0.2 E 4 7 2 4 1019.6 1019.6 0.2
14/10:30pm 9.1 7.5 8.8 98 0.2 E 7 9 4 5 1019.7 1019.7 0.2
14/10:00pm 8.5 6.9 8.2 98 0.1 E 6 9 3 5 1019.9 1019.9 0.2
14/09:30pm 8.7 6.2 8.4 98 0.2 E 11 15 6 8 1019.7 1019.7 0.2
14/09:00pm 8.6 6.9 8.3 98 0.1 E 7 11 4 6 1019.8 1019.8 0.2
14/08:30pm 8.8 7.1 8.5 98 0.2 E 7 11 4 6 1019.8 1019.8 0.2
14/08:00pm 9.2 7.6 8.9 98 0.2 ESE 7 11 4 6 1019.6 1019.6 0.2
14/07:30pm 9.2 7.1 8.3 94 0.5 E 9 13 5 7 1019.3 1019.3 0.2
14/07:00pm 9.8 8.2 8.2 90 0.8 ESE 6 11 3 6 1019.1 1019.1 0.2
14/06:30pm 10.4 8.0 8.7 89 0.9 ESE 11 17 6 9 1018.9 1018.9 0.2
14/06:00pm 11.2 7.7 8.8 85 1.2 ESE 17 24 9 13 1018.5 1018.5 0.2
14/05:30pm 12.5 9.1 9.3 81 1.7 SE 17 20 9 11 1018.1 1018.1 0.2
14/05:00pm 14.3 12.4 8.9 70 2.8 WNW 9 19 5 10 1017.7 1017.7 0.2
14/04:30pm 17.5 13.7 4.1 41 6.5 WNW 13 19 7 10 1017.4 1017.4 0.2
14/04:00pm 17.7 12.8 4.3 41 6.5 NW 19 28 10 15 1017.1 1017.0 0.2
14/03:30pm 18.1 13.3 4.7 41 6.6 NW 19 26 10 14 1017.0 1016.9 0.2
14/03:00pm 18.4 15.4 4.2 39 7.0 NW 9 17 5 9 1016.8 1016.8 0.2
14/02:30pm 18.7 13.6 3.3 36 7.4 NW 19 24 10 13 1017.1 1017.0 0.2
14/02:00pm 18.6 14.1 4.4 39 7.0 NW 17 24 9 13 1017.2 1017.1 0.2
14/01:30pm 18.2 13.8 2.5 35 7.4 WNW 15 24 8 13 1017.4 1017.4 0.2
14/01:00pm 18.1 14.1 2.8 36 7.3 NNW 13 24 7 13 1017.6 1017.6 0.2
14/12:30pm 17.7 13.4 5.3 44 6.2 NW 17 26 9 14 1018.0 1018.0 0.2
14/12:00pm 17.3 14.1 6.8 50 5.4 NNW 13 20 7 11 1018.4 1018.4 0.2
14/11:30am 16.6 14.3 7.3 54 4.8 W 9 20 5 11 1018.9 1018.9 0.0
14/11:00am 15.6 13.9 8.4 62 3.8 W 7 15 4 8 1019.4 1019.4 0.0
14/10:30am 15.0 13.3 9.8 71 2.8 WNW 9 15 5 8 1019.8 1019.8 0.0
14/10:00am 12.6 10.9 8.5 76 2.1 W 7 11 4 6 1020.1 1020.2 0.0
14/09:30am 11.2 9.7 8.4 83 1.4 W 6 9 3 5 1020.4 1020.4 0.0
14/09:00am 9.6 8.1 9.0 96 0.3 W 7 11 4 6 1020.7 1020.7 0.0
14/08:30am 8.2 6.4 7.9 98 0.1 NW 7 13 4 7 1020.8 1020.8 0.0
14/08:00am 7.3 6.7 7.2 99 0.0 CALM 0 0 0 0 1020.6 1020.6 0.0
14/07:30am 6.4 5.6 6.3 99 0.0 CALM 0 0 0 0 1020.5 1020.5 0.0
14/07:00am 5.6 4.2 5.5 99 0.0 NNW 2 4 1 2 1020.4 1020.4 0.0
14/06:30am 4.7 2.7 4.4 98 0.1 NNW 4 6 2 3 1020.2 1020.3 0.0
14/06:00am 4.9 3.7 4.6 98 0.1 CALM 0 2 0 1 1020.2 1020.3 0.0
14/05:30am 4.8 2.8 4.5 98 0.1 NNW 4 7 2 4 1020.1 1020.2 0.0
14/05:00am 6.0 3.7 5.7 98 0.1 NNW 7 9 4 5 1020.1 1020.2 0.0
14/04:30am 6.3 4.1 6.0 98 0.1 NNW 7 9 4 5 1020.1 1020.2 0.0
14/04:00am 7.3 4.9 7.2 99 0.0 NNW 9 11 5 6 1020.1 1020.2 0.0
14/03:30am 7.7 5.8 7.6 99 0.0 NNW 7 11 4 6 1020.4 1020.4 0.0
14/03:00am 8.1 6.3 8.0 99 0.0 NNW 7 11 4 6 1020.4 1020.4 0.0
14/02:30am 8.6 6.9 8.5 99 0.1 N 7 9 4 5 1020.7 1020.7 0.0
14/02:00am 9.0 7.1 8.9 99 0.1 N 9 13 5 7 1020.9 1020.9 0.0
14/01:30am 9.2 7.3 9.1 99 0.1 N 9 13 5 7 1021.1 1021.1 0.0
14/01:00am 9.1 7.6 9.0 99 0.1 N 7 9 4 5 1021.5 1021.6 0.0
14/12:30am 9.3 7.8 9.0 98 0.2 N 7 9 4 5 1021.9 1022.0 0.0
14/12:00am 9.3 7.9 9.0 98 0.2 N 6 7 3 4 1022.2 1022.2 0.0
 
Date/Time
EST
Temp
°C
App
Temp
°C
Dew
Point
Rel
Hum
%
Delta-T
°C
Wind Press
QNH
hPa
Press
MSL
hPa
Rain
since 9 am
mm
Dir
 
Spd
km/h
Gust
km/h
Spd
kts
Gust
kts
13/11:30pm 9.8 8.0 9.5 98 0.2 N 9 19 5 10 1022.3 1022.3 0.0
13/11:00pm 9.5 8.2 9.2 98 0.2 ENE 6 9 3 5 1022.5 1022.5 0.0
13/10:30pm 9.2 7.8 8.9 98 0.2 ENE 6 7 3 4 1022.7 1022.7 0.0
13/10:00pm 8.5 6.9 8.2 98 0.1 ENE 6 11 3 6 1022.9 1023.0 0.0
13/09:30pm 8.2 6.6 7.9 98 0.1 ENE 6 9 3 5 1023.0 1023.1 0.0
13/09:00pm 8.3 7.1 8.0 98 0.1 ENE 4 7 2 4 1022.9 1023.0 0.0
13/08:30pm 8.2 6.6 7.9 98 0.1 ENE 6 7 3 4 1023.1 1023.2 0.0
13/08:00pm 9.1 7.5 8.8 98 0.2 ENE 7 9 4 5 1022.9 1023.0 0.0
13/07:30pm 9.3 7.8 9.0 98 0.2 ENE 7 9 4 5 1022.9 1023.0 0.0
13/07:00pm 9.9 7.4 9.6 98 0.2 ENE 13 17 7 9 1022.6 1022.6 0.0
13/06:30pm 10.6 8.5 9.8 95 0.4 ENE 11 15 6 8 1022.4 1022.4 0.0
13/06:00pm 11.6 9.2 10.0 90 0.8 ENE 13 19 7 10 1022.3 1022.3 0.0
13/05:30pm 12.8 10.7 9.6 81 1.7 ENE 11 17 6 9 1022.1 1022.1 0.0
13/05:00pm 13.9 11.0 9.7 76 2.2 ENE 15 17 8 9 1021.9 1022.0 0.0
13/04:30pm 16.0 14.4 8.7 62 3.9 NW 7 11 4 6 1021.8 1021.9 0.0
13/04:00pm 17.0 15.0 7.1 52 5.1 NNW 7 17 4 9 1021.8 1021.9 0.0
13/03:30pm 16.0 14.0 6.2 52 4.9 N 6 11 3 6 1022.1 1022.1 0.0
13/03:00pm 15.9 13.9 6.9 55 4.6 NNW 7 17 4 9 1022.1 1022.1 0.0
13/02:30pm 15.8 13.2 7.8 59 4.1 N 11 20 6 11 1022.3 1022.3 0.0
13/02:00pm 16.2 14.1 8.2 59 4.2 NNE 9 17 5 9 1022.7 1022.7 0.0
13/01:30pm 15.9 13.4 8.2 60 4.0 NNW 11 20 6 11 1023.1 1023.2 0.0
13/01:00pm 14.8 11.6 6.9 59 4.0 NNW 13 20 7 11 1023.6 1023.7 0.0

Other Formats:

Comma delimited format used in spreadsheet applications
http://www.bom.gov.au/fwo/IDN60801/IDN60801.94943.axf

JavaScript Object Notation format (JSON) in row-major order
http://www.bom.gov.au/fwo/IDN60801/IDN60801.94943.json